sensor_id;sensor_type;location;lat;lon;timestamp;temperature;humidity
74484;SHT31;62942;52.462;10.846;2023-01-24T00:00:06;1.1;95.7
74484;SHT31;62942;52.462;10.846;2023-01-24T00:01:15;1.1;95.7
74484;SHT31;62942;52.462;10.846;2023-01-24T00:02:15;1.1;95.7
74484;SHT31;62942;52.462;10.846;2023-01-24T00:03:25;1.1;95.7
74484;SHT31;62942;52.462;10.846;2023-01-24T00:04:25;1.1;95.6
74484;SHT31;62942;52.462;10.846;2023-01-24T00:05:35;1.1;95.7
74484;SHT31;62942;52.462;10.846;2023-01-24T00:06:45;1.1;95.7
74484;SHT31;62942;52.462;10.846;2023-01-24T00:07:55;1.1;95.7
74484;SHT31;62942;52.462;10.846;2023-01-24T00:08:55;1.1;95.7
74484;SHT31;62942;52.462;10.846;2023-01-24T00:10:05;1.1;95.7
74484;SHT31;62942;52.462;10.846;2023-01-24T00:11:05;1.1;95.7
74484;SHT31;62942;52.462;10.846;2023-01-24T00:12:05;1.1;95.7
74484;SHT31;62942;52.462;10.846;2023-01-24T00:13:15;1.1;95.7
74484;SHT31;62942;52.462;10.846;2023-01-24T00:14:15;1;95.7
74484;SHT31;62942;52.462;10.846;2023-01-24T00:15:25;1;95.6
74484;SHT31;62942;52.462;10.846;2023-01-24T00:16:35;1.1;95.7
74484;SHT31;62942;52.462;10.846;2023-01-24T00:17:45;1.1;95.7
74484;SHT31;62942;52.462;10.846;2023-01-24T00:18:45;1;95.6
74484;SHT31;62942;52.462;10.846;2023-01-24T00:19:45;1.1;95.7
74484;SHT31;62942;52.462;10.846;2023-01-24T00:20:59;1;95.7
74484;SHT31;62942;52.462;10.846;2023-01-24T00:22:05;1.1;95.7
74484;SHT31;62942;52.462;10.846;2023-01-24T00:23:05;1.1;95.7
74484;SHT31;62942;52.462;10.846;2023-01-24T00:24:15;1;95.7
74484;SHT31;62942;52.462;10.846;2023-01-24T00:25:15;1;95.7
74484;SHT31;62942;52.462;10.846;2023-01-24T00:26:25;1;95.6
74484;SHT31;62942;52.462;10.846;2023-01-24T00:27:25;1;95.7
74484;SHT31;62942;52.462;10.846;2023-01-24T00:28:35;1;95.7
74484;SHT31;62942;52.462;10.846;2023-01-24T00:29:35;1;95.7
74484;SHT31;62942;52.462;10.846;2023-01-24T00:30:45;1;95.7
74484;SHT31;62942;52.462;10.846;2023-01-24T00:31:55;1;95.7
74484;SHT31;62942;52.462;10.846;2023-01-24T00:32:55;1;95.7
74484;SHT31;62942;52.462;10.846;2023-01-24T00:34:05;1;95.7
74484;SHT31;62942;52.462;10.846;2023-01-24T00:35:15;1;95.7
74484;SHT31;62942;52.462;10.846;2023-01-24T00:36:15;1;95.7
74484;SHT31;62942;52.462;10.846;2023-01-24T00:37:15;1;95.7
74484;SHT31;62942;52.462;10.846;2023-01-24T00:38:25;1;95.7
74484;SHT31;62942;52.462;10.846;2023-01-24T00:39:35;1;95.7
74484;SHT31;62942;52.462;10.846;2023-01-24T00:40:45;1.1;95.7
74484;SHT31;62942;52.462;10.846;2023-01-24T00:41:55;1.1;95.7
74484;SHT31;62942;52.462;10.846;2023-01-24T00:43:05;1;95.7
74484;SHT31;62942;52.462;10.846;2023-01-24T00:44:15;1;95.7
74484;SHT31;62942;52.462;10.846;2023-01-24T00:45:25;1;95.7
74484;SHT31;62942;52.462;10.846;2023-01-24T00:46:25;1;95.7
74484;SHT31;62942;52.462;10.846;2023-01-24T00:47:35;1;95.7
74484;SHT31;62942;52.462;10.846;2023-01-24T00:48:45;1;95.7
74484;SHT31;62942;52.462;10.846;2023-01-24T00:49:55;1;95.7
74484;SHT31;62942;52.462;10.846;2023-01-24T00:51:05;1;95.7
74484;SHT31;62942;52.462;10.846;2023-01-24T00:52:15;1;95.7
74484;SHT31;62942;52.462;10.846;2023-01-24T00:53:25;1;95.6
74484;SHT31;62942;52.462;10.846;2023-01-24T00:54:35;1;95.6
74484;SHT31;62942;52.462;10.846;2023-01-24T00:55:45;1;95.6
74484;SHT31;62942;52.462;10.846;2023-01-24T00:56:55;1;95.6
74484;SHT31;62942;52.462;10.846;2023-01-24T00:58:05;1;95.6
74484;SHT31;62942;52.462;10.846;2023-01-24T00:59:15;1;95.6
74484;SHT31;62942;52.462;10.846;2023-01-24T01:00:15;1;95.6
74484;SHT31;62942;52.462;10.846;2023-01-24T01:01:25;1.1;95.7
74484;SHT31;62942;52.462;10.846;2023-01-24T01:02:35;1;95.6
74484;SHT31;62942;52.462;10.846;2023-01-24T01:03:45;1;95.7
74484;SHT31;62942;52.462;10.846;2023-01-24T01:04:55;1;95.6
74484;SHT31;62942;52.462;10.846;2023-01-24T01:06:06;1.1;95.7
74484;SHT31;62942;52.462;10.846;2023-01-24T01:07:15;1;95.6
74484;SHT31;62942;52.462;10.846;2023-01-24T01:08:25;1;95.6
74484;SHT31;62942;52.462;10.846;2023-01-24T01:09:35;1.1;95.7
74484;SHT31;62942;52.462;10.846;2023-01-24T01:10:35;1;95.6
74484;SHT31;62942;52.462;10.846;2023-01-24T01:11:45;1;95.6
74484;SHT31;62942;52.462;10.846;2023-01-24T01:12:55;1;95.6
74484;SHT31;62942;52.462;10.846;2023-01-24T01:14:05;1;95.6
74484;SHT31;62942;52.462;10.846;2023-01-24T01:15:15;1;95.6
74484;SHT31;62942;52.462;10.846;2023-01-24T01:16:15;1;95.6
74484;SHT31;62942;52.462;10.846;2023-01-24T01:17:25;1;95.6
74484;SHT31;62942;52.462;10.846;2023-01-24T01:18:35;1;95.6
74484;SHT31;62942;52.462;10.846;2023-01-24T01:19:35;1;95.6
74484;SHT31;62942;52.462;10.846;2023-01-24T01:20:48;1;95.6
74484;SHT31;62942;52.462;10.846;2023-01-24T01:21:55;1;95.6
74484;SHT31;62942;52.462;10.846;2023-01-24T01:23:05;1;95.6
74484;SHT31;62942;52.462;10.846;2023-01-24T01:24:15;1;95.6
74484;SHT31;62942;52.462;10.846;2023-01-24T01:25:25;1;95.6
74484;SHT31;62942;52.462;10.846;2023-01-24T01:26:35;1;95.6
74484;SHT31;62942;52.462;10.846;2023-01-24T01:27:45;1;95.6
74484;SHT31;62942;52.462;10.846;2023-01-24T01:28:55;1;95.6
74484;SHT31;62942;52.462;10.846;2023-01-24T01:30:05;1;95.5
74484;SHT31;62942;52.462;10.846;2023-01-24T01:31:15;1;95.6
74484;SHT31;62942;52.462;10.846;2023-01-24T01:32:25;1;95.5
74484;SHT31;62942;52.462;10.846;2023-01-24T01:33:35;1;95.5
74484;SHT31;62942;52.462;10.846;2023-01-24T01:34:35;1;95.5
74484;SHT31;62942;52.462;10.846;2023-01-24T01:35:35;1;95.5
74484;SHT31;62942;52.462;10.846;2023-01-24T01:36:45;1;95.5
74484;SHT31;62942;52.462;10.846;2023-01-24T01:37:55;1;95.5
74484;SHT31;62942;52.462;10.846;2023-01-24T01:38:55;1;95.5
74484;SHT31;62942;52.462;10.846;2023-01-24T01:40:05;1;95.5
74484;SHT31;62942;52.462;10.846;2023-01-24T01:41:15;1;95.5
74484;SHT31;62942;52.462;10.846;2023-01-24T01:42:25;1;95.5
74484;SHT31;62942;52.462;10.846;2023-01-24T01:43:34;1;95.5
74484;SHT31;62942;52.462;10.846;2023-01-24T01:44:45;1;95.4
74484;SHT31;62942;52.462;10.846;2023-01-24T01:45:55;1;95.4
74484;SHT31;62942;52.462;10.846;2023-01-24T01:46:55;1;95.4
74484;SHT31;62942;52.462;10.846;2023-01-24T01:48:11;1;95.4
74484;SHT31;62942;52.462;10.846;2023-01-24T01:49:15;1;95.3
74484;SHT31;62942;52.462;10.846;2023-01-24T01:50:26;1;95.3
74484;SHT31;62942;52.462;10.846;2023-01-24T01:51:35;1;95.3
74484;SHT31;62942;52.462;10.846;2023-01-24T01:52:36;1;95.3
74484;SHT31;62942;52.462;10.846;2023-01-24T01:53:35;1;95.2
74484;SHT31;62942;52.462;10.846;2023-01-24T01:54:45;1;95.2
74484;SHT31;62942;52.462;10.846;2023-01-24T01:55:55;1;95.2
74484;SHT31;62942;52.462;10.846;2023-01-24T01:57:05;1;95.2
74484;SHT31;62942;52.462;10.846;2023-01-24T01:58:15;1;95.1
74484;SHT31;62942;52.462;10.846;2023-01-24T01:59:16;1;95.1
74484;SHT31;62942;52.462;10.846;2023-01-24T02:00:25;1;95.1
74484;SHT31;62942;52.462;10.846;2023-01-24T02:01:35;1;95.1
74484;SHT31;62942;52.462;10.846;2023-01-24T02:02:46;1;95.1
74484;SHT31;62942;52.462;10.846;2023-01-24T02:03:58;1;95
74484;SHT31;62942;52.462;10.846;2023-01-24T02:05:05;1;95
74484;SHT31;62942;52.462;10.846;2023-01-24T02:06:19;1;95
74484;SHT31;62942;52.462;10.846;2023-01-24T02:07:26;1;95
74484;SHT31;62942;52.462;10.846;2023-01-24T02:08:34;1;95
74484;SHT31;62942;52.462;10.846;2023-01-24T02:09:45;1;95
74484;SHT31;62942;52.462;10.846;2023-01-24T02:10:44;1;95
74484;SHT31;62942;52.462;10.846;2023-01-24T02:11:55;1;95
74484;SHT31;62942;52.462;10.846;2023-01-24T02:13:04;1;95
74484;SHT31;62942;52.462;10.846;2023-01-24T02:14:16;1;95
74484;SHT31;62942;52.462;10.846;2023-01-24T02:15:16;1;95
74484;SHT31;62942;52.462;10.846;2023-01-24T02:16:24;1;94.9
74484;SHT31;62942;52.462;10.846;2023-01-24T02:17:34;1;94.9
74484;SHT31;62942;52.462;10.846;2023-01-24T02:18:35;1;94.9
74484;SHT31;62942;52.462;10.846;2023-01-24T02:19:46;1;94.9
74484;SHT31;62942;52.462;10.846;2023-01-24T02:20:54;1;94.9
74484;SHT31;62942;52.462;10.846;2023-01-24T02:22:07;1;94.9
74484;SHT31;62942;52.462;10.846;2023-01-24T02:23:09;1;94.9
74484;SHT31;62942;52.462;10.846;2023-01-24T02:24:16;1;94.9
74484;SHT31;62942;52.462;10.846;2023-01-24T02:25:16;1;94.9
74484;SHT31;62942;52.462;10.846;2023-01-24T02:26:25;1;94.8
74484;SHT31;62942;52.462;10.846;2023-01-24T02:27:34;1;94.8
74484;SHT31;62942;52.462;10.846;2023-01-24T02:28:45;1;94.8
74484;SHT31;62942;52.462;10.846;2023-01-24T02:29:55;1;94.8
74484;SHT31;62942;52.462;10.846;2023-01-24T02:31:05;1;94.8
74484;SHT31;62942;52.462;10.846;2023-01-24T02:32:05;1;94.8
74484;SHT31;62942;52.462;10.846;2023-01-24T02:33:15;1;94.8
74484;SHT31;62942;52.462;10.846;2023-01-24T02:34:25;1;94.7
74484;SHT31;62942;52.462;10.846;2023-01-24T02:35:34;1;94.7
74484;SHT31;62942;52.462;10.846;2023-01-24T02:36:35;1;94.8
74484;SHT31;62942;52.462;10.846;2023-01-24T02:37:44;1;94.7
74484;SHT31;62942;52.462;10.846;2023-01-24T02:38:57;1;94.7
74484;SHT31;62942;52.462;10.846;2023-01-24T02:40:05;1;94.8
74484;SHT31;62942;52.462;10.846;2023-01-24T02:41:15;1;94.8
74484;SHT31;62942;52.462;10.846;2023-01-24T02:42:25;1;94.7
74484;SHT31;62942;52.462;10.846;2023-01-24T02:43:36;1;94.7
74484;SHT31;62942;52.462;10.846;2023-01-24T02:44:45;1;94.7
74484;SHT31;62942;52.462;10.846;2023-01-24T02:45:54;1;94.7
74484;SHT31;62942;52.462;10.846;2023-01-24T02:47:04;1;94.7
74484;SHT31;62942;52.462;10.846;2023-01-24T02:48:14;0.9;94.7
74484;SHT31;62942;52.462;10.846;2023-01-24T02:49:24;0.9;94.7
74484;SHT31;62942;52.462;10.846;2023-01-24T02:50:34;1;94.7
74484;SHT31;62942;52.462;10.846;2023-01-24T02:51:44;1;94.7
74484;SHT31;62942;52.462;10.846;2023-01-24T02:52:54;1;94.6
74484;SHT31;62942;52.462;10.846;2023-01-24T02:54:04;1;94.6
74484;SHT31;62942;52.462;10.846;2023-01-24T02:55:14;1;94.6
74484;SHT31;62942;52.462;10.846;2023-01-24T02:56:24;0.9;94.6
74484;SHT31;62942;52.462;10.846;2023-01-24T02:57:34;1;94.6
74484;SHT31;62942;52.462;10.846;2023-01-24T02:58:45;1;94.5
74484;SHT31;62942;52.462;10.846;2023-01-24T02:59:54;1;94.6
74484;SHT31;62942;52.462;10.846;2023-01-24T03:01:04;1;94.5
74484;SHT31;62942;52.462;10.846;2023-01-24T03:02:14;1;94.4
74484;SHT31;62942;52.462;10.846;2023-01-24T03:03:24;1;94.3
74484;SHT31;62942;52.462;10.846;2023-01-24T03:04:34;1;94.2
74484;SHT31;62942;52.462;10.846;2023-01-24T03:05:35;1;94.2
74484;SHT31;62942;52.462;10.846;2023-01-24T03:06:44;1;94.1
74484;SHT31;62942;52.462;10.846;2023-01-24T03:07:44;1;94
74484;SHT31;62942;52.462;10.846;2023-01-24T03:08:44;1;93.9
74484;SHT31;62942;52.462;10.846;2023-01-24T03:09:54;1;93.8
74484;SHT31;62942;52.462;10.846;2023-01-24T03:10:55;1;93.6
74484;SHT31;62942;52.462;10.846;2023-01-24T03:12:05;1;93.5
74484;SHT31;62942;52.462;10.846;2023-01-24T03:13:14;1;93.5
74484;SHT31;62942;52.462;10.846;2023-01-24T03:14:24;1;93.3
74484;SHT31;62942;52.462;10.846;2023-01-24T03:15:34;1.1;93.2
74484;SHT31;62942;52.462;10.846;2023-01-24T03:16:44;1;93.2
74484;SHT31;62942;52.462;10.846;2023-01-24T03:17:57;1;93.1
74484;SHT31;62942;52.462;10.846;2023-01-24T03:19:05;1;93
74484;SHT31;62942;52.462;10.846;2023-01-24T03:20:15;1;93
74484;SHT31;62942;52.462;10.846;2023-01-24T03:21:24;1;92.8
74484;SHT31;62942;52.462;10.846;2023-01-24T03:22:34;1;92.6
74484;SHT31;62942;52.462;10.846;2023-01-24T03:23:45;1.1;92.6
74484;SHT31;62942;52.462;10.846;2023-01-24T03:24:54;1.1;92.3
74484;SHT31;62942;52.462;10.846;2023-01-24T03:26:04;1.1;92.2
74484;SHT31;62942;52.462;10.846;2023-01-24T03:27:14;1.1;92
74484;SHT31;62942;52.462;10.846;2023-01-24T03:28:24;1.1;92
74484;SHT31;62942;52.462;10.846;2023-01-24T03:29:34;1.1;91.8
74484;SHT31;62942;52.462;10.846;2023-01-24T03:30:44;1.1;91.7
74484;SHT31;62942;52.462;10.846;2023-01-24T03:31:44;1.1;91.7
74484;SHT31;62942;52.462;10.846;2023-01-24T03:32:57;1.1;91.6
74484;SHT31;62942;52.462;10.846;2023-01-24T03:34:04;1.1;91.6
74484;SHT31;62942;52.462;10.846;2023-01-24T03:35:04;1.1;91.6
74484;SHT31;62942;52.462;10.846;2023-01-24T03:36:04;1.1;91.5
74484;SHT31;62942;52.462;10.846;2023-01-24T03:37:15;1.1;91.4
74484;SHT31;62942;52.462;10.846;2023-01-24T03:38:24;1.1;91.5
74484;SHT31;62942;52.462;10.846;2023-01-24T03:39:34;1.1;91.5
74484;SHT31;62942;52.462;10.846;2023-01-24T03:40:44;1.1;91.4
74484;SHT31;62942;52.462;10.846;2023-01-24T03:41:54;1.1;91.4
74484;SHT31;62942;52.462;10.846;2023-01-24T03:42:54;1.1;91.3
74484;SHT31;62942;52.462;10.846;2023-01-24T03:44:04;1.1;91.3
74484;SHT31;62942;52.462;10.846;2023-01-24T03:45:15;1.1;91.3
74484;SHT31;62942;52.462;10.846;2023-01-24T03:46:24;1.1;91.3
74484;SHT31;62942;52.462;10.846;2023-01-24T03:47:24;1.1;91.3
74484;SHT31;62942;52.462;10.846;2023-01-24T03:48:34;1.1;91.3
74484;SHT31;62942;52.462;10.846;2023-01-24T03:49:34;1.1;91.4
74484;SHT31;62942;52.462;10.846;2023-01-24T03:50:44;1.1;91.4
74484;SHT31;62942;52.462;10.846;2023-01-24T03:51:54;1.1;91.3
74484;SHT31;62942;52.462;10.846;2023-01-24T03:53:05;1.1;91.2
74484;SHT31;62942;52.462;10.846;2023-01-24T03:54:14;1.1;91.1
74484;SHT31;62942;52.462;10.846;2023-01-24T03:55:24;1.1;91
74484;SHT31;62942;52.462;10.846;2023-01-24T03:56:24;1.1;91
74484;SHT31;62942;52.462;10.846;2023-01-24T03:57:34;1.1;90.9
74484;SHT31;62942;52.462;10.846;2023-01-24T03:58:34;1.1;90.9
74484;SHT31;62942;52.462;10.846;2023-01-24T03:59:44;1.1;90.7
74484;SHT31;62942;52.462;10.846;2023-01-24T04:00:54;1.1;90.6
74484;SHT31;62942;52.462;10.846;2023-01-24T04:02:04;1.1;90.6
74484;SHT31;62942;52.462;10.846;2023-01-24T04:03:04;1.1;90.4
74484;SHT31;62942;52.462;10.846;2023-01-24T04:04:14;1.1;90.4
74484;SHT31;62942;52.462;10.846;2023-01-24T04:05:14;1.1;90.3
74484;SHT31;62942;52.462;10.846;2023-01-24T04:06:14;1.1;90.3
74484;SHT31;62942;52.462;10.846;2023-01-24T04:07:25;1.1;90.3
74484;SHT31;62942;52.462;10.846;2023-01-24T04:08:24;1.1;90.3
74484;SHT31;62942;52.462;10.846;2023-01-24T04:09:24;1.1;90.4
74484;SHT31;62942;52.462;10.846;2023-01-24T04:10:34;1.1;90.4
74484;SHT31;62942;52.462;10.846;2023-01-24T04:11:44;1.1;90.4
74484;SHT31;62942;52.462;10.846;2023-01-24T04:12:54;1.1;90.5
74484;SHT31;62942;52.462;10.846;2023-01-24T04:14:04;1.1;90.5
74484;SHT31;62942;52.462;10.846;2023-01-24T04:15:05;1.1;90.5
74484;SHT31;62942;52.462;10.846;2023-01-24T04:16:14;1.1;90.6
74484;SHT31;62942;52.462;10.846;2023-01-24T04:17:14;1.1;90.6
74484;SHT31;62942;52.462;10.846;2023-01-24T04:18:24;1.1;90.7
74484;SHT31;62942;52.462;10.846;2023-01-24T04:19:34;1.1;90.7
74484;SHT31;62942;52.462;10.846;2023-01-24T04:20:35;1.1;90.7
74484;SHT31;62942;52.462;10.846;2023-01-24T04:21:44;1.1;90.8
74484;SHT31;62942;52.462;10.846;2023-01-24T04:22:55;1.1;90.7
74484;SHT31;62942;52.462;10.846;2023-01-24T04:24:04;1.1;90.7
74484;SHT31;62942;52.462;10.846;2023-01-24T04:25:05;1;90.7
74484;SHT31;62942;52.462;10.846;2023-01-24T04:26:14;1.1;90.7
74484;SHT31;62942;52.462;10.846;2023-01-24T04:27:14;1.1;90.6
74484;SHT31;62942;52.462;10.846;2023-01-24T04:28:24;1.1;90.4
74484;SHT31;62942;52.462;10.846;2023-01-24T04:29:34;1.1;90.2
74484;SHT31;62942;52.462;10.846;2023-01-24T04:30:44;1.1;90.2
74484;SHT31;62942;52.462;10.846;2023-01-24T04:31:54;1.1;90
74484;SHT31;62942;52.462;10.846;2023-01-24T04:32:54;1;89.9
74484;SHT31;62942;52.462;10.846;2023-01-24T04:34:04;1.1;89.8
74484;SHT31;62942;52.462;10.846;2023-01-24T04:35:15;1.1;89.7
74484;SHT31;62942;52.462;10.846;2023-01-24T04:36:14;1.1;89.6
74484;SHT31;62942;52.462;10.846;2023-01-24T04:37:25;1.1;89.5
74484;SHT31;62942;52.462;10.846;2023-01-24T04:38:24;1.1;89.4
74484;SHT31;62942;52.462;10.846;2023-01-24T04:39:34;1;89.4
74484;SHT31;62942;52.462;10.846;2023-01-24T04:40:44;1.1;89.1
74484;SHT31;62942;52.462;10.846;2023-01-24T04:41:44;1.1;89.2
74484;SHT31;62942;52.462;10.846;2023-01-24T04:42:44;1.1;89.1
74484;SHT31;62942;52.462;10.846;2023-01-24T04:43:54;1.1;89
74484;SHT31;62942;52.462;10.846;2023-01-24T04:45:05;1.1;89
74484;SHT31;62942;52.462;10.846;2023-01-24T04:46:14;1.1;88.7
74484;SHT31;62942;52.462;10.846;2023-01-24T04:47:14;1.1;88.7
74484;SHT31;62942;52.462;10.846;2023-01-24T04:48:24;1.1;88.6
74484;SHT31;62942;52.462;10.846;2023-01-24T04:49:34;1.1;88.5
74484;SHT31;62942;52.462;10.846;2023-01-24T04:50:34;1.1;88.5
74484;SHT31;62942;52.462;10.846;2023-01-24T04:51:46;1.1;88.6
74484;SHT31;62942;52.462;10.846;2023-01-24T04:52:54;1;88.6
74484;SHT31;62942;52.462;10.846;2023-01-24T04:54:04;1;88.7
74484;SHT31;62942;52.462;10.846;2023-01-24T04:55:14;1;88.6
74484;SHT31;62942;52.462;10.846;2023-01-24T04:56:14;1.1;88.6
74484;SHT31;62942;52.462;10.846;2023-01-24T04:57:24;1;88.6
74484;SHT31;62942;52.462;10.846;2023-01-24T04:58:34;1;88.3
74484;SHT31;62942;52.462;10.846;2023-01-24T04:59:34;1;88.4
74484;SHT31;62942;52.462;10.846;2023-01-24T05:00:44;1.1;88.4
74484;SHT31;62942;52.462;10.846;2023-01-24T05:01:45;1;88.3
74484;SHT31;62942;52.462;10.846;2023-01-24T05:02:54;1;88.3
74484;SHT31;62942;52.462;10.846;2023-01-24T05:04:05;1;88.2
74484;SHT31;62942;52.462;10.846;2023-01-24T05:05:14;1;88.2
74484;SHT31;62942;52.462;10.846;2023-01-24T05:06:24;1;88.2
74484;SHT31;62942;52.462;10.846;2023-01-24T05:07:34;1;88.3
74484;SHT31;62942;52.462;10.846;2023-01-24T05:08:44;1;88.3
74484;SHT31;62942;52.462;10.846;2023-01-24T05:09:54;1;88.4
74484;SHT31;62942;52.462;10.846;2023-01-24T05:10:54;1;88.5
74484;SHT31;62942;52.462;10.846;2023-01-24T05:12:04;1;88.5
74484;SHT31;62942;52.462;10.846;2023-01-24T05:13:14;1;88.6
74484;SHT31;62942;52.462;10.846;2023-01-24T05:14:24;1;88.6
74484;SHT31;62942;52.462;10.846;2023-01-24T05:15:34;1;88.6
74484;SHT31;62942;52.462;10.846;2023-01-24T05:16:34;1;88.5
74484;SHT31;62942;52.462;10.846;2023-01-24T05:17:44;1;88.4
74484;SHT31;62942;52.462;10.846;2023-01-24T05:18:54;1;88.4
74484;SHT31;62942;52.462;10.846;2023-01-24T05:20:04;1;88.3
74484;SHT31;62942;52.462;10.846;2023-01-24T05:21:15;1;88.3
74484;SHT31;62942;52.462;10.846;2023-01-24T05:22:14;1;88.3
74484;SHT31;62942;52.462;10.846;2023-01-24T05:23:24;1;88.2
74484;SHT31;62942;52.462;10.846;2023-01-24T05:24:34;1;88.2
74484;SHT31;62942;52.462;10.846;2023-01-24T05:25:44;1;88.2
74484;SHT31;62942;52.462;10.846;2023-01-24T05:26:54;1;88.2
74484;SHT31;62942;52.462;10.846;2023-01-24T05:28:04;0.9;88.1
74484;SHT31;62942;52.462;10.846;2023-01-24T05:29:14;1;88
74484;SHT31;62942;52.462;10.846;2023-01-24T05:30:24;1;88
74484;SHT31;62942;52.462;10.846;2023-01-24T05:31:34;1;88
74484;SHT31;62942;52.462;10.846;2023-01-24T05:32:34;0.9;88
74484;SHT31;62942;52.462;10.846;2023-01-24T05:33:44;1;88.1
74484;SHT31;62942;52.462;10.846;2023-01-24T05:34:54;0.9;88.1
74484;SHT31;62942;52.462;10.846;2023-01-24T05:36:05;0.9;88.2
74484;SHT31;62942;52.462;10.846;2023-01-24T05:37:14;1;88.2
74484;SHT31;62942;52.462;10.846;2023-01-24T05:38:14;1;88.3
74484;SHT31;62942;52.462;10.846;2023-01-24T05:39:24;0.9;88.4
74484;SHT31;62942;52.462;10.846;2023-01-24T05:40:34;0.9;88.5
74484;SHT31;62942;52.462;10.846;2023-01-24T05:41:44;0.9;88.5
74484;SHT31;62942;52.462;10.846;2023-01-24T05:42:54;0.9;88.6
74484;SHT31;62942;52.462;10.846;2023-01-24T05:44:04;0.9;88.6
74484;SHT31;62942;52.462;10.846;2023-01-24T05:45:14;0.9;88.5
74484;SHT31;62942;52.462;10.846;2023-01-24T05:46:24;0.9;88.6
74484;SHT31;62942;52.462;10.846;2023-01-24T05:47:24;0.9;88.6
74484;SHT31;62942;52.462;10.846;2023-01-24T05:48:24;0.9;88.7
74484;SHT31;62942;52.462;10.846;2023-01-24T05:49:34;0.9;88.7
74484;SHT31;62942;52.462;10.846;2023-01-24T05:50:44;0.9;88.7
74484;SHT31;62942;52.462;10.846;2023-01-24T05:51:54;0.9;88.7
74484;SHT31;62942;52.462;10.846;2023-01-24T05:53:04;0.9;88.7
74484;SHT31;62942;52.462;10.846;2023-01-24T05:54:14;0.9;88.7
74484;SHT31;62942;52.462;10.846;2023-01-24T05:55:24;0.9;88.6
74484;SHT31;62942;52.462;10.846;2023-01-24T05:56:24;0.9;88.6
74484;SHT31;62942;52.462;10.846;2023-01-24T05:57:34;0.9;88.5
74484;SHT31;62942;52.462;10.846;2023-01-24T05:58:35;0.9;88.5
74484;SHT31;62942;52.462;10.846;2023-01-24T05:59:34;0.9;88.5
74484;SHT31;62942;52.462;10.846;2023-01-24T06:00:44;0.9;88.5
74484;SHT31;62942;52.462;10.846;2023-01-24T06:01:44;0.9;88.5
74484;SHT31;62942;52.462;10.846;2023-01-24T06:02:54;0.9;88.5
74484;SHT31;62942;52.462;10.846;2023-01-24T06:04:04;0.9;88.5
74484;SHT31;62942;52.462;10.846;2023-01-24T06:05:14;0.8;88.5
74484;SHT31;62942;52.462;10.846;2023-01-24T06:06:24;0.9;88.5
74484;SHT31;62942;52.462;10.846;2023-01-24T06:07:34;0.9;88.5
74484;SHT31;62942;52.462;10.846;2023-01-24T06:08:44;0.9;88.5
74484;SHT31;62942;52.462;10.846;2023-01-24T06:09:54;0.9;88.6
74484;SHT31;62942;52.462;10.846;2023-01-24T06:11:04;0.9;88.6
74484;SHT31;62942;52.462;10.846;2023-01-24T06:12:14;0.8;88.6
74484;SHT31;62942;52.462;10.846;2023-01-24T06:13:24;0.8;88.6
74484;SHT31;62942;52.462;10.846;2023-01-24T06:14:34;0.8;88.6
74484;SHT31;62942;52.462;10.846;2023-01-24T06:15:44;0.8;88.6
74484;SHT31;62942;52.462;10.846;2023-01-24T06:16:44;0.8;88.6
74484;SHT31;62942;52.462;10.846;2023-01-24T06:17:54;0.8;88.6
74484;SHT31;62942;52.462;10.846;2023-01-24T06:19:05;0.9;88.7
74484;SHT31;62942;52.462;10.846;2023-01-24T06:20:14;0.8;88.7
74484;SHT31;62942;52.462;10.846;2023-01-24T06:21:16;0.8;88.7
74484;SHT31;62942;52.462;10.846;2023-01-24T06:22:25;0.8;88.7
74484;SHT31;62942;52.462;10.846;2023-01-24T06:23:34;0.8;88.8
74484;SHT31;62942;52.462;10.846;2023-01-24T06:24:44;0.8;88.8
74484;SHT31;62942;52.462;10.846;2023-01-24T06:25:44;0.8;88.8
74484;SHT31;62942;52.462;10.846;2023-01-24T06:26:54;0.8;88.8
74484;SHT31;62942;52.462;10.846;2023-01-24T06:28:04;0.8;88.7
74484;SHT31;62942;52.462;10.846;2023-01-24T06:29:15;0.8;88.7
74484;SHT31;62942;52.462;10.846;2023-01-24T06:30:24;0.8;88.7
74484;SHT31;62942;52.462;10.846;2023-01-24T06:31:36;0.8;88.8
74484;SHT31;62942;52.462;10.846;2023-01-24T06:32:49;0.8;88.7
74484;SHT31;62942;52.462;10.846;2023-01-24T06:34:00;0.8;88.8
74484;SHT31;62942;52.462;10.846;2023-01-24T06:35:07;0.8;88.8
74484;SHT31;62942;52.462;10.846;2023-01-24T06:36:17;0.8;88.8
74484;SHT31;62942;52.462;10.846;2023-01-24T06:37:25;0.8;88.8
74484;SHT31;62942;52.462;10.846;2023-01-24T06:38:34;0.8;88.8
74484;SHT31;62942;52.462;10.846;2023-01-24T06:39:45;0.8;88.9
74484;SHT31;62942;52.462;10.846;2023-01-24T06:40:55;0.8;88.9
74484;SHT31;62942;52.462;10.846;2023-01-24T06:41:54;0.8;89
74484;SHT31;62942;52.462;10.846;2023-01-24T06:43:04;0.8;89
74484;SHT31;62942;52.462;10.846;2023-01-24T06:44:14;0.8;89.1
74484;SHT31;62942;52.462;10.846;2023-01-24T06:45:14;0.8;89.1
74484;SHT31;62942;52.462;10.846;2023-01-24T06:46:24;0.8;89.1
74484;SHT31;62942;52.462;10.846;2023-01-24T06:47:34;0.8;89.2
74484;SHT31;62942;52.462;10.846;2023-01-24T06:48:44;0.8;89.3
74484;SHT31;62942;52.462;10.846;2023-01-24T06:49:54;0.8;89.3
74484;SHT31;62942;52.462;10.846;2023-01-24T06:50:54;0.8;89.4
74484;SHT31;62942;52.462;10.846;2023-01-24T06:52:04;0.8;89.4
74484;SHT31;62942;52.462;10.846;2023-01-24T06:53:14;0.8;89.4
74484;SHT31;62942;52.462;10.846;2023-01-24T06:54:24;0.8;89.5
74484;SHT31;62942;52.462;10.846;2023-01-24T06:55:34;0.8;89.5
74484;SHT31;62942;52.462;10.846;2023-01-24T06:56:44;0.8;89.5
74484;SHT31;62942;52.462;10.846;2023-01-24T06:57:54;0.8;89.6
74484;SHT31;62942;52.462;10.846;2023-01-24T06:58:54;0.8;89.6
74484;SHT31;62942;52.462;10.846;2023-01-24T06:59:54;0.8;89.6
74484;SHT31;62942;52.462;10.846;2023-01-24T07:01:04;0.8;89.5
74484;SHT31;62942;52.462;10.846;2023-01-24T07:02:14;0.7;89.4
74484;SHT31;62942;52.462;10.846;2023-01-24T07:03:14;0.7;89.4
74484;SHT31;62942;52.462;10.846;2023-01-24T07:04:24;0.8;89.3
74484;SHT31;62942;52.462;10.846;2023-01-24T07:05:34;0.7;89.2
74484;SHT31;62942;52.462;10.846;2023-01-24T07:06:44;0.7;89.2
74484;SHT31;62942;52.462;10.846;2023-01-24T07:07:54;0.7;89.1
74484;SHT31;62942;52.462;10.846;2023-01-24T07:08:54;0.8;89
74484;SHT31;62942;52.462;10.846;2023-01-24T07:10:04;0.7;88.9
74484;SHT31;62942;52.462;10.846;2023-01-24T07:11:14;0.7;88.9
74484;SHT31;62942;52.462;10.846;2023-01-24T07:12:24;0.7;88.9
74484;SHT31;62942;52.462;10.846;2023-01-24T07:13:24;0.7;88.9
74484;SHT31;62942;52.462;10.846;2023-01-24T07:14:34;0.7;88.9
74484;SHT31;62942;52.462;10.846;2023-01-24T07:15:44;0.7;88.9
74484;SHT31;62942;52.462;10.846;2023-01-24T07:16:54;0.7;88.9
74484;SHT31;62942;52.462;10.846;2023-01-24T07:17:54;0.7;88.9
74484;SHT31;62942;52.462;10.846;2023-01-24T07:19:04;0.7;88.9
74484;SHT31;62942;52.462;10.846;2023-01-24T07:20:04;0.7;89
74484;SHT31;62942;52.462;10.846;2023-01-24T07:21:14;0.7;89.1
74484;SHT31;62942;52.462;10.846;2023-01-24T07:22:14;0.7;89.1
74484;SHT31;62942;52.462;10.846;2023-01-24T07:23:25;0.7;89.1
74484;SHT31;62942;52.462;10.846;2023-01-24T07:24:34;0.7;89.2
74484;SHT31;62942;52.462;10.846;2023-01-24T07:25:44;0.7;89.2
74484;SHT31;62942;52.462;10.846;2023-01-24T07:26:54;0.7;89.1
74484;SHT31;62942;52.462;10.846;2023-01-24T07:28:04;0.7;89
74484;SHT31;62942;52.462;10.846;2023-01-24T07:29:04;0.7;89